createdAt,value
2017-05-14T00:19:24.911Z,0
2017-05-14T00:29:34.797Z,0
2017-05-14T00:39:44.676Z,0
2017-05-14T00:49:54.633Z,0
2017-05-14T01:00:04.608Z,0
2017-05-14T01:10:14.599Z,0
2017-05-14T01:20:24.540Z,0
2017-05-14T01:30:34.510Z,0
2017-05-14T01:40:44.480Z,0
2017-05-14T01:50:54.553Z,0
2017-05-14T02:01:04.486Z,0
2017-05-14T02:11:14.508Z,0
2017-05-14T02:21:24.524Z,0
2017-05-14T02:31:34.556Z,0
2017-05-14T02:41:44.674Z,0
2017-05-14T02:51:54.821Z,0
2017-05-14T03:02:04.995Z,0
2017-05-14T03:12:15.130Z,0
2017-05-14T03:22:25.323Z,0
2017-05-14T03:32:35.538Z,5
2017-05-14T03:42:45.799Z,20
2017-05-14T03:52:56.035Z,40
2017-05-14T04:03:06.481Z,65
2017-05-14T04:13:16.466Z,95
2017-05-14T04:23:26.589Z,115
2017-05-14T04:33:36.643Z,155
2017-05-14T04:43:46.492Z,185
2017-05-14T04:53:56.205Z,215
2017-05-14T05:04:05.792Z,235
2017-05-14T05:14:15.256Z,255
2017-05-14T05:24:24.617Z,300
2017-05-14T05:34:33.806Z,335
2017-05-14T05:44:42.846Z,525
2017-05-14T05:54:51.711Z,550
2017-05-14T06:05:00.376Z,730
2017-05-14T06:15:08.916Z,865
2017-05-14T06:25:17.406Z,940
2017-05-14T06:35:25.837Z,1220
2017-05-14T06:45:34.207Z,1285
2017-05-14T06:55:42.488Z,1335
2017-05-14T07:05:50.772Z,1250
2017-05-14T07:15:58.828Z,1330
2017-05-14T07:26:06.847Z,1090
2017-05-14T07:36:14.979Z,1275
2017-05-14T07:46:23.159Z,1575
2017-05-14T07:56:31.140Z,1645
2017-05-14T08:06:38.902Z,2070
2017-05-14T08:16:46.498Z,1785
2017-05-14T08:26:53.987Z,1320
2017-05-14T08:37:01.530Z,2295
2017-05-14T08:47:09.119Z,1800
2017-05-14T08:57:16.885Z,3070
2017-05-14T09:07:24.453Z,2900
2017-05-14T09:17:31.839Z,2980
2017-05-14T09:27:39.220Z,2965
2017-05-14T09:37:46.585Z,3135
2017-05-14T09:47:53.908Z,3450
2017-05-14T09:58:01.227Z,3675
2017-05-14T10:08:08.496Z,3030
2017-05-14T10:18:15.825Z,700
2017-05-14T10:28:23.561Z,3750
2017-05-14T10:38:31.479Z,3900
2017-05-14T10:48:39.222Z,2745
2017-05-14T10:58:46.740Z,3965
2017-05-14T11:08:54.047Z,1675
2017-05-14T11:19:01.551Z,4090
2017-05-14T11:29:08.972Z,2775
2017-05-14T11:39:16.262Z,3640
2017-05-14T11:49:23.474Z,3050
2017-05-14T11:59:30.766Z,545
2017-05-14T12:09:38.411Z,220
2017-05-14T12:19:46.586Z,430
2017-05-14T12:20:03.391Z,425
2017-05-14T12:20:19.232Z,420
2017-05-14T12:20:34.148Z,415
2017-05-14T12:21:16.950Z,400
2017-05-14T12:21:48.291Z,400
2017-05-14T12:22:58.480Z,400
2017-05-14T12:23:26.879Z,410
2017-05-14T12:32:46.357Z,770
2017-05-14T12:33:06.505Z,815
2017-05-14T12:33:25.308Z,840
2017-05-14T12:33:47.935Z,875
2017-05-14T12:37:33.675Z,1850
2017-05-14T12:47:42.043Z,3350
2017-05-14T12:57:50.079Z,1015
2017-05-14T13:07:57.870Z,1600
2017-05-14T13:18:05.697Z,880
2017-05-14T13:28:13.710Z,1230
2017-05-14T13:38:21.784Z,3110
2017-05-14T13:48:29.567Z,2940
2017-05-14T13:58:36.864Z,2665
2017-05-14T14:08:44.244Z,1300
2017-05-14T14:18:51.794Z,915
2017-05-14T14:28:59.683Z,2575
2017-05-14T14:39:07.274Z,1030
2017-05-14T14:49:15.084Z,970
2017-05-14T14:59:22.846Z,965
2017-05-14T15:09:30.735Z,1705
2017-05-14T15:19:38.520Z,660
2017-05-14T15:29:46.451Z,655
2017-05-14T15:39:54.518Z,775
2017-05-14T15:50:02.640Z,670
2017-05-14T16:00:10.787Z,1585
2017-05-14T16:10:18.705Z,625
2017-05-14T16:20:26.845Z,355
2017-05-14T16:30:35.226Z,365
2017-05-14T16:40:43.675Z,325
2017-05-14T16:50:52.192Z,260
2017-05-14T17:01:00.914Z,455
2017-05-14T17:11:09.715Z,415
2017-05-14T17:21:18.526Z,275
2017-05-14T17:31:27.524Z,245
2017-05-14T17:41:36.472Z,435
2017-05-14T17:51:45.088Z,395
2017-05-14T18:01:53.638Z,310
2017-05-14T18:12:02.192Z,275
2017-05-14T18:22:10.895Z,185
2017-05-14T18:32:19.794Z,135
2017-05-14T18:42:28.871Z,115
2017-05-14T18:52:38.054Z,65
2017-05-14T19:02:47.252Z,45
2017-05-14T19:12:56.541Z,20
2017-05-14T19:23:05.971Z,5
2017-05-14T19:33:15.527Z,0
2017-05-14T19:43:25.167Z,0
2017-05-14T19:53:34.863Z,0
2017-05-14T20:03:44.584Z,0
2017-05-14T20:13:54.327Z,0
2017-05-14T20:24:04.062Z,0
2017-05-14T20:34:13.815Z,0
2017-05-14T20:44:23.624Z,0
2017-05-14T20:54:33.453Z,0
2017-05-14T21:04:43.300Z,0
2017-05-14T21:14:53.186Z,0
2017-05-14T21:25:03.087Z,0
2017-05-14T21:35:13.016Z,0
2017-05-14T21:45:23.025Z,0
2017-05-14T21:55:33.071Z,0
2017-05-14T22:05:43.084Z,0
2017-05-14T22:15:53.143Z,0
2017-05-14T22:26:03.212Z,0
2017-05-14T22:36:13.275Z,0
2017-05-14T22:46:23.415Z,0
2017-05-14T22:56:33.540Z,0
2017-05-14T23:06:43.708Z,0
2017-05-14T23:16:53.884Z,0
2017-05-14T23:27:04.081Z,0
2017-05-14T23:37:14.293Z,0
2017-05-14T23:47:24.487Z,0
2017-05-14T23:57:34.761Z,0
